createdAt,value
2023-09-05T00:00:39.361Z,14.4
2023-09-05T00:06:32.858Z,14.4
2023-09-05T00:12:25.501Z,14.4
2023-09-05T00:18:16.717Z,14.4
2023-09-05T00:23:54.035Z,14.4
2023-09-05T00:29:46.571Z,14.4
2023-09-05T00:35:38.197Z,14.4
2023-09-05T00:41:31.017Z,14.4
2023-09-05T00:47:23.711Z,14.4
2023-09-05T00:53:15.740Z,14.4
2023-09-05T00:59:09.252Z,14.4
2023-09-05T01:05:01.947Z,14.4
2023-09-05T01:10:53.510Z,14.4
2023-09-05T01:16:46.961Z,14.5
2023-09-05T01:22:39.405Z,14.5
2023-09-05T01:28:30.726Z,14.6
2023-09-05T01:34:23.343Z,14.6
2023-09-05T01:40:16.026Z,14.6
2023-09-05T01:46:07.610Z,14.7
2023-09-05T01:51:45.353Z,14.7
2023-09-05T01:57:38.321Z,14.7
2023-09-05T02:03:14.533Z,14.7
2023-09-05T02:08:52.118Z,14.6
2023-09-05T02:14:43.767Z,14.6
2023-09-05T02:20:35.690Z,14.6
2023-09-05T02:26:27.673Z,14.7
2023-09-05T02:32:20.946Z,14.7
2023-09-05T02:38:13.346Z,14.7
2023-09-05T02:43:51.177Z,14.7
2023-09-05T02:49:43.922Z,14.7
2023-09-05T02:55:45.613Z,14.6
2023-09-05T03:01:39.453Z,14.5
2023-09-05T03:07:31.465Z,14.5
2023-09-05T03:13:22.284Z,14.4
2023-09-05T03:19:15.572Z,14.4
2023-09-05T03:25:08.322Z,14.4
2023-09-05T03:31:01.165Z,14.3
2023-09-05T03:36:54.269Z,14.4
2023-09-05T03:42:46.892Z,14.4
2023-09-05T03:48:51.570Z,14.4
2023-09-05T03:54:44.806Z,14.4
2023-09-05T04:00:36.625Z,14.5
2023-09-05T04:06:31.763Z,14.4
2023-09-05T04:12:12.429Z,14.4
2023-09-05T04:18:05.000Z,14.4
2023-09-05T04:23:42.978Z,14.4
2023-09-05T04:29:20.249Z,14.5
2023-09-05T04:34:57.849Z,14.6
2023-09-05T04:40:33.866Z,14.7
2023-09-05T04:46:11.660Z,14.8
2023-09-05T04:51:50.249Z,15
2023-09-05T04:57:26.736Z,15.2
2023-09-05T05:03:04.137Z,15.4
2023-09-05T05:08:44.642Z,15.9
2023-09-05T05:14:36.116Z,16.4
2023-09-05T05:20:29.370Z,16.9
2023-09-05T05:26:21.407Z,17.4
2023-09-05T05:32:13.622Z,17.8
2023-09-05T05:38:06.708Z,18.1
2023-09-05T05:43:58.751Z,18.3
2023-09-05T05:55:31.973Z,19.1
2023-09-05T06:01:09.806Z,19.4
2023-09-05T06:07:02.756Z,19.8
2023-09-05T06:12:56.110Z,20.1
2023-09-05T06:18:48.396Z,20.3
2023-09-05T06:24:24.768Z,20.6
2023-09-05T06:30:18.044Z,21.1
2023-09-05T06:35:54.707Z,21.5
2023-09-05T06:41:49.312Z,21.8
2023-09-05T06:47:42.107Z,21.8
2023-09-05T06:53:34.950Z,21.8
2023-09-05T06:59:27.008Z,21.8
2023-09-05T07:05:19.880Z,22.3
2023-09-05T07:11:26.070Z,23.7
2023-09-05T07:18:23.408Z,25.9
2023-09-05T07:24:17.886Z,26.8
2023-09-05T07:35:48.677Z,28.7
2023-09-05T07:41:41.507Z,29
2023-09-05T07:47:33.772Z,28.6
2023-09-05T07:59:05.206Z,27.1
2023-09-05T08:04:57.979Z,26.5
2023-09-05T08:10:49.650Z,26.2
2023-09-05T08:16:42.419Z,26.8
2023-09-05T08:22:34.346Z,30.2
2023-09-05T08:28:29.588Z,33
2023-09-05T08:34:34.701Z,35.3
2023-09-05T08:40:29.245Z,39
2023-09-05T08:46:21.907Z,41.6
2023-09-05T08:52:05.333Z,41.2
2023-09-05T08:57:59.126Z,41.2
2023-09-05T09:03:56.351Z,42.3
2023-09-05T09:09:49.713Z,47.2
2023-09-05T09:15:42.342Z,58.5
2023-09-05T09:21:36.708Z,75.2
2023-09-05T09:27:30.090Z,54.8
2023-09-05T09:33:23.622Z,54.6
2023-09-05T09:39:18.894Z,69.1
2023-09-05T09:45:13.481Z,61.6
2023-09-05T09:51:06.526Z,61.4
2023-09-05T09:56:58.212Z,63.1
2023-09-05T10:03:06.075Z,63.7
2023-09-05T10:09:03.375Z,64.1
2023-09-05T10:14:55.823Z,63.8
2023-09-05T10:20:48.778Z,57.5
2023-09-05T10:26:40.481Z,60.4
2023-09-05T10:32:31.852Z,60.6
2023-09-05T10:38:25.322Z,60.5
2023-09-05T10:44:18.314Z,60.6
2023-09-05T10:50:13.937Z,60.1
2023-09-05T10:56:08.736Z,60.4
2023-09-05T11:02:03.520Z,60.4
2023-09-05T11:07:43.966Z,60.7
2023-09-05T11:13:37.384Z,60.8
2023-09-05T11:19:30.469Z,60.8
2023-09-05T11:25:07.482Z,60.8
2023-09-05T11:30:46.702Z,60.3
2023-09-05T11:36:39.862Z,60.2
2023-09-05T11:42:16.668Z,60.1
2023-09-05T11:47:55.292Z,59.9
2023-09-05T11:53:50.862Z,60
2023-09-05T11:59:42.182Z,59.4
2023-09-05T12:05:35.843Z,66.9
2023-09-05T12:11:41.742Z,68.6
2023-09-05T12:17:33.798Z,59.4
2023-09-05T12:23:31.513Z,62
2023-09-05T12:29:52.026Z,70.9
2023-09-05T12:35:46.973Z,62.3
2023-09-05T12:41:43.512Z,56.8
2023-09-05T12:47:36.701Z,60.8
2023-09-05T12:53:45.165Z,65.4
2023-09-05T12:59:41.104Z,69.2
2023-09-05T13:05:33.002Z,60.2
2023-09-05T13:11:26.572Z,57.6
2023-09-05T13:17:05.591Z,61.9
2023-09-05T13:22:42.963Z,61.9
2023-09-05T13:28:38.693Z,59.4
2023-09-05T13:34:35.998Z,56.5
2023-09-05T13:40:29.317Z,53.2
2023-09-05T13:46:21.444Z,49.9
2023-09-05T13:52:15.470Z,47.1
2023-09-05T13:58:11.911Z,44.8
2023-09-05T14:04:04.845Z,42.8
2023-09-05T14:09:58.530Z,41.4
2023-09-05T14:15:51.216Z,39.8
2023-09-05T14:21:43.945Z,38.1
2023-09-05T14:27:37.272Z,36.6
2023-09-05T14:33:32.699Z,35.1
2023-09-05T14:39:24.513Z,33.9
2023-09-05T14:45:17.761Z,32.9
2023-09-05T14:50:55.159Z,32.1
2023-09-05T14:56:47.614Z,31.3
2023-09-05T15:02:40.934Z,30.4
2023-09-05T15:08:35.367Z,29.6
2023-09-05T15:14:12.360Z,28.8
2023-09-05T15:20:06.411Z,28.1
2023-09-05T15:25:58.302Z,27.4
2023-09-05T15:31:50.493Z,26.8
2023-09-05T15:37:44.284Z,26.3
2023-09-05T15:43:39.543Z,25.8
2023-09-05T15:49:31.071Z,25.3
2023-09-05T15:55:24.453Z,24.9
2023-09-05T16:01:18.873Z,24.6
2023-09-05T16:07:12.646Z,24.3
2023-09-05T16:13:06.617Z,23.9
2023-09-05T16:19:02.679Z,23.6
2023-09-05T16:24:54.336Z,23.3
2023-09-05T16:30:47.347Z,22.9
2023-09-05T16:36:40.566Z,22.6
2023-09-05T16:42:32.271Z,22.3
2023-09-05T16:48:26.195Z,22
2023-09-05T16:54:22.795Z,21.7
2023-09-05T17:00:15.449Z,21.4
2023-09-05T17:11:50.311Z,20.9
2023-09-05T17:17:42.444Z,20.6
2023-09-05T17:23:36.207Z,20.4
2023-09-05T17:29:30.805Z,20.1
2023-09-05T17:35:08.167Z,19.9
2023-09-05T17:41:01.984Z,19.7
2023-09-05T17:46:56.248Z,19.4
2023-09-05T17:52:49.978Z,19.3
2023-09-05T17:58:43.723Z,19.3
2023-09-05T18:04:37.856Z,19.2
2023-09-05T18:10:30.982Z,19.1
2023-09-05T18:16:27.389Z,19.1
2023-09-05T18:22:21.705Z,19.1
2023-09-05T18:28:14.429Z,19
2023-09-05T18:33:55.837Z,19
2023-09-05T18:39:33.219Z,19
2023-09-05T18:44:54.855Z,19
2023-09-05T18:50:33.491Z,19
2023-09-05T18:56:27.429Z,18.9
2023-09-05T19:02:20.042Z,18.9
2023-09-05T19:08:13.890Z,18.9
2023-09-05T19:14:09.405Z,18.9
2023-09-05T19:20:03.559Z,18.9
2023-09-05T19:25:41.814Z,18.8
2023-09-05T19:31:35.368Z,18.8
2023-09-05T19:37:27.543Z,18.8
2023-09-05T19:49:04.300Z,18.6
2023-09-05T19:54:56.894Z,18.6
2023-09-05T20:00:50.429Z,18.6
2023-09-05T20:05:57.906Z,18.4
2023-09-05T20:11:50.015Z,18.2
2023-09-05T20:17:44.639Z,17.9
2023-09-05T20:23:37.053Z,17.6
2023-09-05T20:29:29.078Z,17.3
2023-09-05T20:41:02.517Z,16.6
2023-09-05T20:46:54.674Z,16.4
2023-09-05T20:52:49.926Z,16.2
2023-09-05T20:58:42.821Z,16.1
2023-09-05T21:04:36.850Z,15.9
2023-09-05T21:10:00.059Z,15.8
2023-09-05T21:15:52.719Z,15.8
2023-09-05T21:21:45.235Z,15.7
2023-09-05T21:27:38.462Z,15.6
2023-09-05T21:33:31.709Z,15.6
2023-09-05T21:39:24.836Z,15.5
2023-09-05T21:45:18.556Z,15.5
2023-09-05T21:51:10.839Z,15.4
2023-09-05T21:57:02.829Z,15.4
2023-09-05T22:02:58.133Z,15.3
2023-09-05T22:08:51.367Z,15.3
2023-09-05T22:14:43.906Z,15.3
2023-09-05T22:20:44.858Z,15.3
2023-09-05T22:26:45.288Z,15.3
2023-09-05T22:32:37.435Z,15.2
2023-09-05T22:38:30.810Z,15.3
2023-09-05T22:44:22.056Z,15.2
2023-09-05T22:50:20.562Z,15.1
2023-09-05T22:55:58.360Z,15.1
2023-09-05T23:01:51.003Z,15.1
2023-09-05T23:07:44.190Z,15.1
2023-09-05T23:13:36.537Z,15.1
2023-09-05T23:19:32.002Z,15.1
2023-09-05T23:25:23.885Z,15.1
2023-09-05T23:31:16.095Z,15.1
2023-09-05T23:37:08.083Z,15
2023-09-05T23:43:02.067Z,14.9
2023-09-05T23:48:54.675Z,14.9
2023-09-05T23:54:34.473Z,14.8
